Time;durP1;ratioP1;P1;durP2;ratioP2;P2;SDS_P1;SDS_P2;PMS_P1;PMS_P2;Temp;Humidity;BMP_temperature;BMP_pressure;BME280_temperature;BME280_humidity;BME280_pressure;Samples;Min_cycle;Max_cycle;Signal;HPM_P1;HPM_P2
2023/05/20 04:22:33;;;;;;;1.58;1.38;;;;;;;12.21;89.05;100361.69;5130465;27;20120;-67
2023/05/20 04:24:59;;;;;;;2.88;2.00;;;;;;;12.25;88.80;100362.16;5129148;28;20092;-66
2023/05/20 04:27:25;;;;;;;2.00;1.80;;;;;;;12.27;88.93;100362.81;5128649;28;20039;-67
2023/05/20 04:29:51;;;;;;;2.30;1.73;;;;;;;12.29;88.69;100364.28;5128943;28;20032;-66
2023/05/20 04:32:18;;;;;;;1.52;1.35;;;;;;;12.22;88.53;100371.38;5128968;28;20042;-68
2023/05/20 04:34:47;;;;;;;1.42;1.33;;;;;;;12.26;88.65;100363.81;5128807;28;20053;-67
2023/05/20 04:37:13;;;;;;;2.78;1.70;;;;;;;12.33;88.74;100360.25;5128301;28;20040;-66
2023/05/20 04:39:42;;;;;;;3.40;1.55;;;;;;;12.32;88.77;100355.91;5128854;28;20047;-66
2023/05/20 04:42:12;;;;;;;3.45;2.00;;;;;;;12.39;88.74;100361.38;5128700;28;20506;-66
2023/05/20 04:44:38;;;;;;;1.60;1.40;;;;;;;12.42;88.59;100366.34;5129990;27;20035;-64
2023/05/20 04:47:06;;;;;;;2.80;1.80;;;;;;;12.37;88.67;100358.84;5128426;28;20083;-65
2023/05/20 04:49:35;;;;;;;2.70;1.85;;;;;;;12.41;88.68;100359.34;5128624;28;20323;-66
2023/05/20 04:52:01;;;;;;;2.55;1.88;;;;;;;12.43;88.68;100359.97;5129966;27;20039;-67
2023/05/20 04:54:26;;;;;;;2.15;1.77;;;;;;;12.51;88.03;100362.56;5129821;27;20062;-67
2023/05/20 04:56:52;;;;;;;2.15;1.77;;;;;;;12.50;87.83;100360.91;5128138;28;20031;-68
2023/05/20 04:59:18;;;;;;;2.72;1.60;;;;;;;12.46;88.48;100357.78;5128442;28;20528;-66
2023/05/20 05:01:43;;;;;;;2.15;1.60;;;;;;;12.49;88.11;100353.91;5129847;27;20377;-66
2023/05/20 05:04:08;;;;;;;3.03;1.70;;;;;;;12.55;87.59;100355.84;5128273;28;20092;-66
2023/05/20 05:06:35;;;;;;;2.38;1.85;;;;;;;12.52;87.93;100358.03;5128211;28;20138;-66
2023/05/20 05:09:01;;;;;;;1.65;1.50;;;;;;;12.61;86.94;100354.28;5127979;28;20441;-65
2023/05/20 05:11:26;;;;;;;3.65;2.35;;;;;;;12.61;87.46;100343.59;5128195;28;20042;-66
2023/05/20 05:13:52;;;;;;;4.30;2.50;;;;;;;12.58;88.03;100344.78;5129573;27;20480;-66
2023/05/20 05:16:21;;;;;;;2.67;1.92;;;;;;;12.66;87.63;100342.03;5128056;28;20058;-66
2023/05/20 05:18:46;;;;;;;2.22;2.00;;;;;;;12.73;87.85;100334.09;5127810;28;20071;-65
2023/05/20 05:21:12;;;;;;;2.28;1.67;;;;;;;12.74;86.19;100344.59;5127889;28;20032;-63
2023/05/20 05:23:38;;;;;;;3.40;1.98;;;;;;;12.71;86.26;100334.31;5129315;27;20066;-65
2023/05/20 05:26:04;;;;;;;1.73;1.52;;;;;;;12.76;86.67;100331.88;5127926;28;20487;-64
2023/05/20 05:28:29;;;;;;;2.63;1.92;;;;;;;12.72;86.26;100314.56;5110806;28;20104;-66
2023/05/20 05:30:56;;;;;;;2.95;1.85;;;;;;;12.82;86.38;100319.63;5127839;28;20369;-66
2023/05/20 05:33:21;;;;;;;2.92;2.10;;;;;;;12.87;86.31;100324.41;5117334;28;20046;-65
2023/05/20 05:35:47;;;;;;;3.20;2.72;;;;;;;12.94;86.30;100319.97;5113983;28;20043;-65
2023/05/20 05:38:13;;;;;;;1.95;1.50;;;;;;;13.03;86.35;100319.66;5113685;28;20057;-66
2023/05/20 05:40:39;;;;;;;2.67;2.15;;;;;;;13.06;86.15;100318.50;5114166;28;20032;-64
2023/05/20 05:43:05;;;;;;;3.00;2.40;;;;;;;13.08;86.80;100320.97;5113890;28;20035;-64
2023/05/20 05:45:30;;;;;;;2.80;2.13;;;;;;;13.06;86.93;100315.81;5106949;28;20028;-59
2023/05/20 05:47:56;;;;;;;2.33;2.00;;;;;;;12.99;86.95;100314.91;5111925;28;20034;-62
2023/05/20 05:50:22;;;;;;;2.20;1.63;;;;;;;12.90;87.01;100316.84;5113638;28;20130;-61
2023/05/20 05:52:47;;;;;;;3.30;2.10;;;;;;;12.98;87.27;100324.78;5113800;28;20032;-60
2023/05/20 05:55:13;;;;;;;2.17;1.80;;;;;;;13.09;85.84;100328.78;5113540;28;20079;-61
2023/05/20 05:57:40;;;;;;;2.20;1.70;;;;;;;13.09;86.49;100323.44;5113335;28;20043;-60
2023/05/20 06:00:07;;;;;;;2.88;2.15;;;;;;;13.14;86.61;100322.91;5113528;28;20043;-60
2023/05/20 06:02:43;;;;;;;1.63;1.45;;;;;;;13.24;86.07;100323.47;5113902;27;20051;-60
2023/05/20 06:05:09;;;;;;;3.83;2.05;;;;;;;13.35;85.45;100314.09;5106439;28;20032;-62
2023/05/20 06:07:35;;;;;;;2.60;2.00;;;;;;;13.40;85.34;100317.03;5103070;28;20059;-62
2023/05/20 06:10:00;;;;;;;3.88;2.72;;;;;;;13.45;85.62;100320.81;5103715;28;20507;-62
2023/05/20 06:12:26;;;;;;;2.50;2.10;;;;;;;13.48;85.43;100316.91;5107630;28;20118;-62
2023/05/20 06:14:52;;;;;;;4.40;2.65;;;;;;;13.49;85.09;100311.38;5113345;28;20035;-63
2023/05/20 06:17:17;;;;;;;2.92;2.35;;;;;;;13.57;85.63;100321.97;5113032;28;20434;-62
2023/05/20 06:19:43;;;;;;;2.45;2.10;;;;;;;13.64;85.73;100319.34;5113184;28;20036;-60
2023/05/20 06:22:09;;;;;;;5.30;2.35;;;;;;;13.69;84.81;100318.75;5113055;28;20035;-61
2023/05/20 06:24:35;;;;;;;6.18;2.38;;;;;;;13.80;85.35;100319.06;5113071;28;20070;-62
2023/05/20 06:27:02;;;;;;;2.95;2.17;;;;;;;13.90;84.93;100317.94;5112785;28;20035;-59
2023/05/20 06:29:28;;;;;;;4.32;2.20;;;;;;;13.88;84.69;100307.41;5113220;28;20455;-61
2023/05/20 06:31:54;;;;;;;3.03;2.22;;;;;;;14.00;84.69;100297.00;5112885;28;20042;-60
2023/05/20 06:34:19;;;;;;;1.73;1.63;;;;;;;14.16;84.54;100302.06;5113040;28;20044;-62
2023/05/20 06:36:45;;;;;;;2.10;1.90;;;;;;;14.21;83.65;100299.63;5114061;28;20051;-60
2023/05/20 06:39:11;;;;;;;3.22;2.33;;;;;;;14.18;83.69;100296.53;5112450;28;20039;-61
2023/05/20 06:41:38;;;;;;;2.85;2.17;;;;;;;13.97;84.93;100287.50;5113035;28;20110;-63
2023/05/20 06:44:07;;;;;;;2.38;1.83;;;;;;;14.10;84.10;100289.47;5111748;28;20036;-61
2023/05/20 06:46:49;;;;;;;3.30;2.03;;;;;;;14.05;84.84;100298.06;5097713;28;20071;-62
2023/05/20 06:49:15;;;;;;;2.47;1.92;;;;;;;14.23;85.00;100299.44;5112355;28;20128;-62
2023/05/20 06:51:40;;;;;;;2.80;2.40;;;;;;;14.29;85.02;100290.63;5095460;28;20039;-62
2023/05/20 06:54:06;;;;;;;2.78;2.20;;;;;;;14.33;84.90;100295.38;5112545;28;20035;-59
2023/05/20 06:56:32;;;;;;;4.15;1.83;;;;;;;14.39;84.57;100286.56;5112475;28;20423;-60
2023/05/20 06:58:58;;;;;;;2.75;1.80;;;;;;;14.53;84.96;100286.66;5095211;28;20511;-60
2023/05/20 07:01:23;;;;;;;2.42;1.98;;;;;;;14.64;84.68;100294.16;5104315;28;20032;-60
2023/05/20 07:03:49;;;;;;;2.97;1.90;;;;;;;14.69;85.29;100291.72;5100746;28;20059;-63
2023/05/20 07:06:14;;;;;;;3.03;2.15;;;;;;;14.82;85.04;100286.41;5098979;28;20036;-60
2023/05/20 07:08:40;;;;;;;2.90;1.90;;;;;;;14.92;85.24;100286.03;5092837;28;20036;-56
2023/05/20 07:11:06;;;;;;;4.50;2.08;;;;;;;15.24;86.48;100289.84;5091750;28;20060;-59
2023/05/20 07:13:32;;;;;;;2.15;1.70;;;;;;;15.31;85.74;100279.94;5093089;28;20491;-58
2023/05/20 07:15:57;;;;;;;3.15;2.55;;;;;;;15.33;83.31;100277.91;5104653;28;20040;-58
2023/05/20 07:18:23;;;;;;;2.70;2.13;;;;;;;15.42;83.31;100271.31;5111598;28;20038;-60
2023/05/20 07:20:52;;;;;;;2.78;1.95;;;;;;;15.46;83.47;100275.25;5111801;28;20028;-61
2023/05/20 07:23:38;;;;;;;3.28;2.28;;;;;;;15.57;82.77;100272.97;5111893;28;20031;-60
2023/05/20 07:26:04;;;;;;;3.45;2.10;;;;;;;15.58;82.58;100263.88;5111793;28;20505;-60
2023/05/20 07:28:30;;;;;;;2.05;1.65;;;;;;;15.70;82.92;100260.41;5111579;28;20043;-62
2023/05/20 07:30:56;;;;;;;2.22;1.88;;;;;;;15.81;82.99;100250.09;5111713;28;20034;-59
2023/05/20 07:33:28;;;;;;;2.53;2.17;;;;;;;15.91;82.97;100248.66;5111754;28;20042;-61
2023/05/20 07:35:54;;;;;;;2.65;1.75;;;;;;;15.93;82.35;100240.38;5111821;28;20031;-61
2023/05/20 07:38:21;;;;;;;2.87;2.13;;;;;;;16.02;81.65;100245.31;5111385;28;20070;-61
2023/05/20 07:40:50;;;;;;;2.92;2.03;;;;;;;16.08;81.64;100249.03;5111611;28;20746;-62
2023/05/20 07:43:16;;;;;;;2.90;2.35;;;;;;;16.13;80.81;100251.91;5111384;28;20039;-62
2023/05/20 07:45:41;;;;;;;2.13;1.92;;;;;;;16.02;81.50;100239.94;5111341;28;20083;-62
2023/05/20 07:48:07;;;;;;;3.28;2.63;;;;;;;16.09;81.31;100242.63;5103892;28;20074;-60
2023/05/20 07:50:33;;;;;;;3.22;2.35;;;;;;;16.21;81.97;100248.19;5100358;28;20558;-62
2023/05/20 07:52:59;;;;;;;3.60;2.10;;;;;;;16.25;81.72;100246.75;5102212;28;20082;-63
2023/05/20 07:55:26;;;;;;;2.40;2.10;;;;;;;16.57;80.77;100236.09;5101582;28;20039;-62
2023/05/20 07:57:53;;;;;;;3.10;2.33;;;;;;;16.49;80.25;100229.06;5105534;28;20085;-59
2023/05/20 08:00:20;;;;;;;2.38;2.15;;;;;;;16.47;79.93;100231.16;5102080;28;20577;-63
2023/05/20 08:02:46;;;;;;;2.33;2.03;;;;;;;16.66;79.72;100224.88;5112707;28;20027;-61
2023/05/20 08:05:15;;;;;;;2.90;2.03;;;;;;;16.92;78.32;100225.84;5111253;28;20039;-62
2023/05/20 08:07:41;;;;;;;3.13;2.17;;;;;;;17.02;78.47;100232.41;5110989;28;20039;-62
2023/05/20 08:10:08;;;;;;;3.60;2.47;;;;;;;17.16;78.18;100226.94;5111243;28;20035;-61
2023/05/20 08:12:33;;;;;;;3.30;2.20;;;;;;;17.30;76.74;100225.81;5111153;28;20059;-61
2023/05/20 08:14:59;;;;;;;2.90;2.33;;;;;;;17.47;76.37;100226.91;5111219;28;20063;-61
2023/05/20 08:17:25;;;;;;;4.22;2.53;;;;;;;17.59;75.91;100230.53;5110894;28;20036;-59
2023/05/20 08:19:52;;;;;;;4.15;2.28;;;;;;;17.76;73.28;100220.09;5111292;28;20400;-60
2023/05/20 08:22:17;;;;;;;3.10;2.40;;;;;;;17.86;72.84;100219.56;5112290;28;20093;-61
2023/05/20 08:24:43;;;;;;;2.85;2.55;;;;;;;17.98;72.48;100211.59;5111091;28;20027;-61
2023/05/20 08:27:09;;;;;;;3.15;2.40;;;;;;;18.14;71.37;100205.63;5108896;28;20032;-62
2023/05/20 08:29:35;;;;;;;2.90;2.17;;;;;;;17.80;71.93;100202.44;5109654;28;20127;-62
2023/05/20 08:32:00;;;;;;;3.45;2.20;;;;;;;17.86;72.79;100196.16;5111097;28;20047;-52
2023/05/20 08:34:26;;;;;;;3.42;2.42;;;;;;;18.03;73.24;100209.06;5111093;28;20081;-58
2023/05/20 08:36:52;;;;;;;3.45;2.35;;;;;;;17.99;72.24;100200.59;5111957;28;20061;-55
2023/05/20 08:39:18;;;;;;;3.10;2.40;;;;;;;18.38;70.33;100209.28;5112109;28;20043;-56
2023/05/20 08:41:46;;;;;;;2.95;2.53;;;;;;;18.40;67.95;100194.56;5110946;28;20042;-63
2023/05/20 08:44:11;;;;;;;4.00;2.58;;;;;;;18.61;68.83;100195.13;5110933;28;20138;-62
2023/05/20 08:46:39;;;;;;;3.20;2.33;;;;;;;18.73;66.78;100197.91;5110884;28;20040;-64
2023/05/20 08:49:06;;;;;;;4.25;2.28;;;;;;;18.78;67.10;100200.72;5110604;28;20122;-63
2023/05/20 08:51:32;;;;;;;2.70;2.50;;;;;;;18.88;66.20;100188.34;5112152;28;20071;-63
2023/05/20 08:53:58;;;;;;;3.00;2.13;;;;;;;19.17;66.56;100188.56;5112280;28;20039;-63
2023/05/20 08:56:26;;;;;;;2.63;2.30;;;;;;;19.39;63.72;100194.25;5112206;28;20446;-63
2023/05/20 08:58:52;;;;;;;3.47;2.33;;;;;;;19.52;64.02;100180.53;5111696;28;20225;-63
2023/05/20 09:01:18;;;;;;;2.80;2.30;;;;;;;19.39;64.38;100186.16;5112135;28;20027;-62
2023/05/20 09:03:43;;;;;;;3.08;2.42;;;;;;;19.70;63.44;100175.06;5112142;28;20048;-62
2023/05/20 09:06:09;;;;;;;2.50;2.28;;;;;;;19.95;62.07;100180.22;5111946;28;20038;-62
2023/05/20 09:08:35;;;;;;;2.63;2.13;;;;;;;20.07;60.94;100169.38;5114289;28;20093;-62
2023/05/20 09:11:01;;;;;;;2.85;2.15;;;;;;;20.07;60.74;100180.19;5115638;28;20038;-62
2023/05/20 09:13:30;;;;;;;3.20;2.33;;;;;;;20.27;61.06;100182.50;5115671;28;20118;-62
2023/05/20 09:15:55;;;;;;;3.83;2.08;;;;;;;20.12;61.11;100184.91;5115564;28;20031;-61
2023/05/20 09:18:20;;;;;;;2.67;2.28;;;;;;;20.41;57.71;100183.06;5115418;28;20497;-62
2023/05/20 09:20:49;;;;;;;2.90;2.45;;;;;;;20.19;58.32;100191.81;5115602;28;20369;-60
2023/05/20 09:23:18;;;;;;;2.20;1.90;;;;;;;20.62;57.06;100196.00;5115578;28;20039;-62
2023/05/20 09:25:43;;;;;;;2.92;2.30;;;;;;;20.75;56.87;100184.88;5115232;28;20047;-63
2023/05/20 09:28:10;;;;;;;2.08;1.85;;;;;;;20.75;55.79;100189.47;5115188;28;20031;-62
2023/05/20 09:30:36;;;;;;;2.25;1.98;;;;;;;20.98;55.68;100193.97;5115378;28;20438;-62
2023/05/20 09:33:03;;;;;;;3.03;2.60;;;;;;;21.31;54.55;100185.91;5115361;28;20047;-62
2023/05/20 09:35:29;;;;;;;2.40;2.08;;;;;;;21.44;54.08;100190.19;5115283;28;20032;-62
2023/05/20 09:37:56;;;;;;;2.75;1.92;;;;;;;21.59;53.68;100190.47;5114957;28;20054;-63
2023/05/20 09:40:27;;;;;;;2.50;2.30;;;;;;;21.54;54.92;100186.84;5115263;28;20408;-63
2023/05/20 09:42:55;;;;;;;2.42;1.98;;;;;;;21.62;53.65;100186.41;5113996;28;20044;-64
2023/05/20 09:45:21;;;;;;;2.90;2.35;;;;;;;22.07;52.76;100185.44;5115116;27;20441;-63
2023/05/20 09:47:50;;;;;;;2.90;2.22;;;;;;;21.95;51.99;100177.41;5114938;28;20063;-63
2023/05/20 09:50:16;;;;;;;2.80;2.15;;;;;;;22.09;51.78;100170.59;5115153;28;20084;-63
2023/05/20 09:52:42;;;;;;;2.25;1.80;;;;;;;22.30;50.66;100179.84;5115092;28;20032;-65
2023/05/20 09:55:12;;;;;;;2.88;1.90;;;;;;;22.13;51.69;100173.63;5114852;28;20114;-65
2023/05/20 09:57:37;;;;;;;2.22;2.03;;;;;;;22.23;51.67;100172.94;5114677;28;20493;-65
2023/05/20 10:00:05;;;;;;;2.60;2.33;;;;;;;22.45;51.18;100171.88;5114976;28;20039;-65
2023/05/20 10:02:41;;;;;;;2.88;2.20;;;;;;;22.64;50.53;100171.56;5114875;28;20097;-65
2023/05/20 10:05:24;;;;;;;2.85;2.40;;;;;;;22.69;49.71;100172.44;5114807;28;20032;-64
2023/05/20 10:08:08;;;;;;;2.55;2.30;;;;;;;22.62;49.86;100166.34;5113244;28;20042;-64
2023/05/20 10:10:57;;;;;;;2.85;2.22;;;;;;;22.81;50.21;100163.31;5114685;28;20050;-64
2023/05/20 10:13:42;;;;;;;2.80;2.42;;;;;;;22.40;49.56;100152.81;5113573;28;20058;-65
2023/05/20 10:16:45;;;;;;;2.10;1.88;;;;;;;22.50;50.10;100151.31;5114539;28;20028;-65
2023/05/20 10:19:28;;;;;;;2.45;2.25;;;;;;;22.43;50.36;100156.91;5114327;28;20126;-65
2023/05/20 10:22:00;;;;;;;4.57;2.42;;;;;;;22.51;50.34;100153.75;5114774;28;20031;-64
2023/05/20 10:24:36;;;;;;;2.95;2.38;;;;;;;22.51;50.44;100142.09;5114430;28;20039;-65
2023/05/20 10:27:07;;;;;;;2.28;2.08;;;;;;;23.02;48.46;100147.00;5114236;28;20476;-62
2023/05/20 10:29:52;;;;;;;2.50;2.08;;;;;;;23.11;49.20;100141.09;5114336;28;20043;-64
2023/05/20 10:32:28;;;;;;;2.60;2.00;;;;;;;23.61;46.21;100126.28;5114277;28;20040;-64
2023/05/20 10:35:12;;;;;;;2.65;2.13;;;;;;;23.50;46.33;100130.81;5114232;28;20481;-65
2023/05/20 10:37:42;;;;;;;2.90;2.60;;;;;;;23.96;46.41;100131.13;5114017;28;20084;-65
2023/05/20 10:40:11;;;;;;;3.58;2.60;;;;;;;23.51;47.07;100129.72;5114152;28;20043;-66
2023/05/20 10:42:36;;;;;;;3.83;2.10;;;;;;;23.88;45.74;100121.56;5114037;28;20085;-66
2023/05/20 10:45:02;;;;;;;2.55;2.00;;;;;;;24.06;44.75;100121.13;5112705;28;20024;-66
2023/05/20 10:47:28;;;;;;;3.90;2.40;;;;;;;22.81;48.04;100117.97;5112616;28;20076;-66
2023/05/20 10:49:54;;;;;;;3.30;2.15;;;;;;;22.79;48.47;100128.28;5113930;28;20492;-66
2023/05/20 10:52:20;;;;;;;3.13;2.45;;;;;;;22.47;49.22;100125.47;5113807;28;20165;-66
2023/05/20 10:54:53;;;;;;;3.20;2.40;;;;;;;22.37;50.28;100123.50;5113869;28;20031;-66
2023/05/20 10:57:19;;;;;;;3.60;2.42;;;;;;;22.55;50.04;100116.06;5113147;28;20035;-65
2023/05/20 10:59:46;;;;;;;3.05;2.33;;;;;;;22.34;50.44;100121.28;5113814;28;20097;-64
2023/05/20 11:02:14;;;;;;;2.67;2.30;;;;;;;22.90;48.55;100121.91;5113956;28;20039;-65
2023/05/20 11:04:42;;;;;;;3.25;2.40;;;;;;;22.76;49.47;100117.94;5113717;28;20404;-65
2023/05/20 11:07:08;;;;;;;3.33;2.33;;;;;;;23.08;47.97;100117.97;5113214;28;20057;-65
2023/05/20 11:09:33;;;;;;;2.85;2.22;;;;;;;22.96;48.28;100106.47;5112345;28;20040;-66
2023/05/20 11:11:59;;;;;;;2.88;2.33;;;;;;;23.53;47.46;100106.63;5113266;28;20416;-65
2023/05/20 11:14:27;;;;;;;2.88;2.35;;;;;;;23.02;47.89;100100.81;5112360;28;20637;-66
2023/05/20 11:16:55;;;;;;;2.53;2.08;;;;;;;23.29;47.90;100102.66;5113170;28;20393;-65
2023/05/20 11:19:21;;;;;;;4.10;2.35;;;;;;;22.17;50.19;100098.84;5113346;28;20066;-65
2023/05/20 11:21:47;;;;;;;3.38;2.50;;;;;;;22.38;49.71;100089.03;5113261;28;20112;-65
2023/05/20 11:24:22;;;;;;;3.13;2.35;;;;;;;22.75;49.62;100089.13;5112013;28;20388;-65
2023/05/20 11:26:47;;;;;;;3.03;2.40;;;;;;;23.02;47.59;100089.97;5113024;28;20040;-64
2023/05/20 11:29:13;;;;;;;3.20;2.33;;;;;;;23.21;47.23;100090.38;5112955;28;20035;-65
2023/05/20 11:31:38;;;;;;;3.92;2.70;;;;;;;23.25;47.80;100072.47;5112501;28;20507;-65
2023/05/20 11:34:03;;;;;;;3.35;2.30;;;;;;;23.50;47.31;100071.81;5111958;28;20043;-65
2023/05/20 11:36:29;;;;;;;3.58;2.40;;;;;;;23.46;46.85;100075.31;5094881;28;20031;-65
2023/05/20 11:38:59;;;;;;;2.85;2.28;;;;;;;23.13;47.04;100079.16;5112514;28;20036;-66
2023/05/20 11:41:27;;;;;;;4.65;2.47;;;;;;;23.15;46.59;100077.03;5111764;28;20039;-66
2023/05/20 11:43:59;;;;;;;3.10;2.70;;;;;;;22.98;47.94;100069.00;5112913;28;20027;-65
2023/05/20 11:46:25;;;;;;;3.35;2.60;;;;;;;22.76;48.46;100074.50;5106280;28;20044;-65
2023/05/20 11:48:54;;;;;;;2.58;2.17;;;;;;;22.91;48.10;100076.56;5100586;28;20019;-66
2023/05/20 11:51:27;;;;;;;2.88;2.35;;;;;;;22.94;48.23;100079.56;5100469;28;20028;-65
2023/05/20 11:53:59;;;;;;;2.90;2.50;;;;;;;22.45;49.67;100076.09;5100362;28;20039;-65
2023/05/20 11:56:24;;;;;;;2.45;2.20;;;;;;;22.74;50.06;100076.63;5100959;28;20032;-64
2023/05/20 11:58:50;;;;;;;3.03;2.63;;;;;;;22.79;48.95;100068.53;5100526;28;20096;-64
2023/05/20 12:01:15;;;;;;;3.00;2.60;;;;;;;22.31;49.70;100066.72;5102171;28;20122;-65
2023/05/20 12:03:41;;;;;;;3.40;2.80;;;;;;;22.53;50.06;100062.03;5100483;28;20039;-66
2023/05/20 12:06:06;;;;;;;3.40;2.50;;;;;;;22.59;49.54;100057.50;5100963;28;20064;-64
2023/05/20 12:08:32;;;;;;;2.85;2.58;;;;;;;22.79;50.21;100056.84;5100205;28;20526;-64
2023/05/20 12:10:57;;;;;;;4.75;2.50;;;;;;;22.43;50.01;100059.22;5084196;28;20036;-64
2023/05/20 12:13:22;;;;;;;3.28;2.67;;;;;;;22.48;49.98;100065.53;5100503;28;20539;-64
2023/05/20 12:15:48;;;;;;;3.90;2.80;;;;;;;22.78;49.06;100064.19;5100804;28;20400;-65
2023/05/20 12:18:13;;;;;;;3.00;2.53;;;;;;;22.75;48.89;100064.69;5101683;28;20089;-65
2023/05/20 12:20:39;;;;;;;3.67;2.70;;;;;;;22.67;49.72;100059.72;5099669;28;20393;-64
2023/05/20 12:23:04;;;;;;;3.95;2.97;;;;;;;22.88;49.14;100041.75;5099977;28;20035;-64
2023/05/20 12:25:30;;;;;;;4.10;3.22;;;;;;;22.97;49.03;100042.94;5101207;28;20047;-65
2023/05/20 12:27:55;;;;;;;2.83;2.25;;;;;;;23.26;48.25;100037.97;5099579;28;20050;-64
2023/05/20 12:30:22;;;;;;;4.18;3.03;;;;;;;23.82;47.65;100044.56;5101697;28;20135;-65
2023/05/20 12:32:49;;;;;;;4.63;2.83;;;;;;;24.33;45.97;100041.19;5100848;28;20032;-64
2023/05/20 12:35:15;;;;;;;3.58;2.60;;;;;;;23.92;45.92;100032.06;5099443;28;20092;-64
2023/05/20 12:37:41;;;;;;;3.72;2.90;;;;;;;23.65;47.21;100034.97;5100279;28;20051;-64
2023/05/20 12:40:11;;;;;;;4.20;2.77;;;;;;;23.77;47.30;100036.38;5099533;28;20059;-65
2023/05/20 12:42:38;;;;;;;3.42;2.63;;;;;;;23.68;48.38;100032.53;5100683;28;20612;-65
2023/05/20 12:45:04;;;;;;;4.20;2.50;;;;;;;23.80;47.43;100040.50;5105433;28;20396;-65
2023/05/20 12:47:31;;;;;;;5.40;2.90;;;;;;;23.48;48.08;100048.72;5104987;28;20049;-64
2023/05/20 12:49:56;;;;;;;3.72;2.88;;;;;;;23.52;48.48;100041.66;5103589;28;20497;-65
2023/05/20 12:52:22;;;;;;;3.50;2.92;;;;;;;23.41;46.98;100035.34;5104188;28;20048;-65
2023/05/20 12:54:47;;;;;;;3.30;2.97;;;;;;;23.20;48.46;100041.72;5103412;28;20040;-65
2023/05/20 12:57:12;;;;;;;3.25;2.55;;;;;;;22.85;48.54;100034.09;5102564;28;20042;-65
2023/05/20 12:59:38;;;;;;;3.63;2.90;;;;;;;22.56;49.10;100030.84;5104408;28;20036;-64
2023/05/20 13:02:03;;;;;;;4.13;3.30;;;;;;;22.99;48.45;100019.03;5104849;28;20078;-64
2023/05/20 13:04:29;;;;;;;3.88;3.20;;;;;;;23.29;47.94;100021.16;5102161;28;20142;-65
2023/05/20 13:06:55;;;;;;;4.25;2.75;;;;;;;23.55;46.70;100027.56;5104033;28;20538;-65
2023/05/20 13:09:20;;;;;;;2.88;2.42;;;;;;;23.97;46.23;100022.03;5104069;28;20032;-65
2023/05/20 13:11:45;;;;;;;4.15;3.13;;;;;;;23.62;47.08;100011.84;5103740;28;20035;-64
2023/05/20 13:14:11;;;;;;;3.80;2.65;;;;;;;23.44;47.92;100010.34;5104028;28;20034;-65
2023/05/20 13:16:37;;;;;;;2.97;2.63;;;;;;;23.37;47.17;100015.22;5093926;28;20040;-65
2023/05/20 13:19:02;;;;;;;2.92;2.63;;;;;;;23.50;47.29;100022.09;5094926;28;20425;-65
2023/05/20 13:21:28;;;;;;;3.17;2.80;;;;;;;23.29;48.56;100027.41;5093959;28;20076;-64
2023/05/20 13:23:53;;;;;;;4.82;3.17;;;;;;;23.55;47.62;100005.81;5096304;28;20040;-64
2023/05/20 13:26:19;;;;;;;3.53;3.00;;;;;;;23.44;48.14;100002.22;5105226;28;20039;-64
2023/05/20 13:28:44;;;;;;;3.40;2.83;;;;;;;23.48;49.08;99997.88;5103166;28;20040;-63
2023/05/20 13:31:10;;;;;;;3.70;2.67;;;;;;;23.51;48.52;100001.97;5102459;28;20034;-65
2023/05/20 13:33:35;;;;;;;3.70;3.08;;;;;;;23.51;47.88;100000.06;5104884;28;20040;-65
2023/05/20 13:36:01;;;;;;;3.47;2.88;;;;;;;23.50;47.93;100003.06;5105046;28;20024;-65
2023/05/20 13:38:27;;;;;;;4.18;2.75;;;;;;;23.43;48.50;99983.44;5104629;28;20063;-65
2023/05/20 13:40:52;;;;;;;3.97;3.17;;;;;;;23.59;46.93;99989.75;5103020;28;20093;-64
2023/05/20 13:43:18;;;;;;;4.05;2.88;;;;;;;23.36;47.64;99997.28;5102476;28;20040;-66
2023/05/20 13:45:43;;;;;;;4.72;2.95;;;;;;;23.59;47.06;99978.91;5103530;28;20044;-65
2023/05/20 13:48:08;;;;;;;3.92;3.10;;;;;;;23.52;47.79;99985.38;5101429;28;20032;-64
2023/05/20 13:50:34;;;;;;;3.20;2.70;;;;;;;23.36;48.68;99969.28;5110564;28;20047;-65
2023/05/20 13:52:59;;;;;;;3.55;2.90;;;;;;;23.49;48.32;99969.63;5114612;28;20043;-64
2023/05/20 13:55:25;;;;;;;5.13;3.13;;;;;;;23.31;49.69;99958.38;5114879;28;20051;-63
2023/05/20 13:57:53;;;;;;;3.42;2.90;;;;;;;23.21;48.17;99956.41;5113141;27;20039;-64
2023/05/20 14:00:18;;;;;;;3.78;3.15;;;;;;;23.11;47.99;99961.81;5094467;28;20036;-64
2023/05/20 14:02:44;;;;;;;3.50;2.83;;;;;;;23.07;48.47;99957.97;5094579;28;20028;-64
2023/05/20 14:05:09;;;;;;;3.15;2.65;;;;;;;23.17;48.79;99955.31;5094204;28;20036;-64
2023/05/20 14:07:35;;;;;;;3.55;2.80;;;;;;;23.11;49.13;99948.22;5092736;28;20068;-65
2023/05/20 14:10:00;;;;;;;4.85;3.15;;;;;;;22.78;49.54;99949.34;5076318;28;20044;-65
2023/05/20 14:12:26;;;;;;;3.88;2.90;;;;;;;22.79;50.01;99951.78;5092847;28;20092;-62
2023/05/20 14:14:51;;;;;;;3.47;2.65;;;;;;;23.07;51.00;99955.25;5094167;28;20485;-56
2023/05/20 14:17:17;;;;;;;3.08;2.78;;;;;;;23.04;49.13;99953.06;5093673;28;20435;-56
2023/05/20 14:19:42;;;;;;;4.10;3.22;;;;;;;22.92;49.84;99948.66;5094163;28;20461;-57
2023/05/20 14:22:08;;;;;;;3.75;3.28;;;;;;;22.96;50.15;99955.22;5093934;28;20157;-57
2023/05/20 14:24:33;;;;;;;4.10;2.90;;;;;;;22.89;49.08;99946.47;5093994;28;20393;-57
2023/05/20 14:26:59;;;;;;;4.22;3.50;;;;;;;22.84;49.55;99945.59;5093702;28;20040;-57
2023/05/20 14:29:24;;;;;;;4.22;3.10;;;;;;;22.72;50.01;99932.19;5093788;28;20089;-58
2023/05/20 14:31:49;;;;;;;4.43;3.65;;;;;;;22.64;50.57;99938.94;5093779;28;20142;-60
2023/05/20 14:34:15;;;;;;;4.95;3.28;;;;;;;22.74;49.99;99938.97;5093901;28;20048;-59
2023/05/20 14:36:40;;;;;;;3.65;3.00;;;;;;;22.70;49.93;99939.78;5093785;28;20119;-57
2023/05/20 14:39:07;;;;;;;4.47;3.40;;;;;;;22.68;50.60;99940.03;5093658;28;20051;-56
2023/05/20 14:41:32;;;;;;;4.53;2.90;;;;;;;22.63;50.23;99939.19;5093661;28;20278;-59
2023/05/20 14:43:57;;;;;;;3.63;2.90;;;;;;;22.63;50.60;99923.72;5093644;28;20457;-59
2023/05/20 14:46:23;;;;;;;4.35;3.22;;;;;;;22.70;50.50;99931.66;5093421;28;20040;-54
2023/05/20 14:48:48;;;;;;;4.50;3.28;;;;;;;22.82;50.75;99918.69;5093112;28;20036;-62
2023/05/20 14:51:13;;;;;;;4.10;3.08;;;;;;;22.89;51.13;99926.66;5093359;28;20115;-62
2023/05/20 14:53:39;;;;;;;4.15;2.88;;;;;;;23.03;51.06;99916.94;5093430;28;20044;-60
2023/05/20 14:56:04;;;;;;;4.50;3.15;;;;;;;23.13;50.06;99917.00;5093247;28;20424;-61
2023/05/20 14:58:30;;;;;;;3.53;2.78;;;;;;;23.21;49.88;99913.78;5092915;28;20040;-60
2023/05/20 15:00:55;;;;;;;5.38;3.40;;;;;;;23.06;50.70;99921.03;5092107;28;20039;-60
2023/05/20 15:03:23;;;;;;;4.88;3.35;;;;;;;22.97;50.17;99921.53;5093107;28;20128;-61
2023/05/20 15:05:48;;;;;;;;;;;;;;;23.26;49.50;99924.66;5092615;28;20432;-59
2023/05/20 15:08:14;;;;;;;4.40;2.85;;;;;;;23.18;49.79;99918.94;5092755;28;19916;-64
2023/05/20 15:10:40;;;;;;;5.00;3.17;;;;;;;23.40;49.42;99921.47;5093046;28;20052;-62
2023/05/20 15:13:05;;;;;;;4.05;3.15;;;;;;;23.09;50.21;99920.53;5092991;28;20044;-61
2023/05/20 15:15:31;;;;;;;3.80;3.10;;;;;;;23.13;49.75;99918.91;5092973;28;20040;-62
2023/05/20 15:17:57;;;;;;;6.00;3.15;;;;;;;23.31;49.76;99925.78;5091345;28;20044;-63
2023/05/20 15:20:22;;;;;;;4.10;3.38;;;;;;;23.22;49.70;99928.19;5092742;28;20084;-62
2023/05/20 15:22:48;;;;;;;4.10;3.22;;;;;;;23.20;49.38;99924.91;5092968;28;20056;-63
2023/05/20 15:25:13;;;;;;;4.88;3.30;;;;;;;22.92;50.35;99926.94;5092918;28;20454;-60
2023/05/20 15:27:42;;;;;;;5.18;3.40;;;;;;;23.02;49.86;99928.91;5091487;28;20065;-62
2023/05/20 15:30:08;;;;;;;3.70;2.85;;;;;;;23.12;50.02;99931.66;5092769;28;20039;-61
2023/05/20 15:32:33;;;;;;;3.95;3.03;;;;;;;23.16;49.73;99934.69;5092645;28;20069;-63
2023/05/20 15:35:00;;;;;;;5.00;3.20;;;;;;;23.03;50.14;99927.81;5092656;28;20122;-62
2023/05/20 15:37:26;;;;;;;4.10;3.40;;;;;;;23.05;49.75;99932.97;5092495;28;20370;-60
2023/05/20 15:39:52;;;;;;;5.10;3.92;;;;;;;23.00;50.05;99940.00;5092666;28;20050;-61
2023/05/20 15:42:18;;;;;;;4.90;3.55;;;;;;;22.67;50.47;99940.28;5092556;28;20036;-63
2023/05/20 15:44:44;;;;;;;5.13;3.80;;;;;;;22.71;50.59;99927.84;5092498;28;20063;-62
2023/05/20 15:47:10;;;;;;;4.88;3.22;;;;;;;22.87;50.79;99935.03;5091999;28;20047;-62